• Join FlightAware (Why Join?)
  • Login
  • US Flag 
10:38PM EST


 

Airport Tracker/Info


-or-


 

Live Flight TrackerFlight Track Log ✈ UAL4660 ✈ 04-Oct-2013 ✈ KSLC - KIAH

Flight Track Log - Related Links

Times and Time Zones

All times are in EDT time to prevent confusion due to time zone crossing. See the UAL4660 flight status page for this flight to view local times or setup timezone preferences in your user account.

Time Position Orientation Groundspeed Altitude Reporting Facility
EDT Latitude Longitude Course Direction KTS MPH feet Rate Location/Type
02:54PM 40.8067 -111.9794 105° East 181 208 4,900  Level Salt Lake Center
02:54PM 40.8364 -111.9808 358° North 189 217 5,800 2,040 Climbing Salt Lake Center
02:55PM 40.9025 -111.9903 354° North 234 269 8,100 2,220 Climbing Salt Lake Center
02:56PM 40.9750 -111.9981 355° North 258 297 10,400 2,160 Climbing Salt Lake Center
02:57PM 40.7781 -111.6291 161° South  Level FlightAware Approximate
02:57PM 41.0053 -111.9231 62° Northeast 271 312 12,600  Level Salt Lake Center
02:58PM 40.7160 -111.5142 111° Southeast  Level FlightAware Approximate
02:58PM 40.9483 -111.8519 137° Southeast 297 342 13,700  Level Salt Lake Center
02:59PM 40.6777 -111.3720 105° East  Level FlightAware Approximate
02:59PM 40.8814 -111.7733 138° Southeast 324 373 15,200  Level Salt Lake Center
03:00PM 40.7969 -111.6736 138° Southeast 340 391 17,100 1,440 Climbing Salt Lake Center
03:01PM 40.7411 -111.5711 126° Southeast 351 404 18,200 1,260 Climbing Salt Lake Center
03:02PM 40.7064 -111.4514 111° Southeast 352 405 19,800 1,500 Climbing Salt Lake Center
03:03PM 40.6714 -111.3289 111° Southeast 359 413 21,300 1,380 Climbing Salt Lake Center
03:05PM 40.6364 -111.2075 111° Southeast 357 411 22,700 1,380 Climbing Salt Lake Center
03:06PM 40.6003 -111.0847 111° Southeast 359 413 24,200 1,560 Climbing Salt Lake Center
03:07PM 40.5572 -110.9381 111° Southeast 360 414 26,000 1,620 Climbing Salt Lake Center
03:08PM 40.5222 -110.8178 111° Southeast 354 407 27,600 1,500 Climbing Salt Lake Center
03:09PM 40.4875 -110.7019 111° Southeast 344 396 29,100 1,200 Climbing Salt Lake Center
03:10PM 40.4519 -110.5800 111° Southeast 343 395 30,200 780 Climbing Salt Lake Center
03:11PM 40.4144 -110.4669 114° Southeast 351 404 30,800 780 Climbing Salt Lake Center
03:12PM 40.3294 -110.3575 136° Southeast 379 436 31,800 900 Climbing Salt Lake Center
03:13PM 40.2572 -110.2650 136° Southeast 382 440 32,700 960 Climbing Salt Lake Center
03:14PM 40.1700 -110.1542 136° Southeast 390 449 33,800 780 Climbing Salt Lake Center
03:15PM 40.1061 -110.0497 129° Southeast 386 444 34,400 540 Climbing Salt Lake Center
03:16PM 40.0375 -109.9167 124° Southeast 394 453 35,000 360 Climbing Salt Lake Center
03:16PM 40.0072 -109.8575 124° Southeast 399 459 35,000  Level Denver Center
03:17PM 39.9336 -109.7194 125° Southeast 414 476 35,000  Level Denver Center
03:18PM 39.8675 -109.5944 125° Southeast 434 499 35,000  Level Denver Center
03:20PM 39.7867 -109.4431 125° Southeast 454 522 35,000  Level Denver Center
03:21PM 39.7153 -109.3097 125° Southeast 467 537 35,000  Level Denver Center
03:22PM 39.6281 -109.1492 125° Southeast 489 563 35,000  Level Denver Center
03:23PM 39.5536 -109.0111 125° Southeast 494 568 35,000  Level Denver Center
03:24PM 39.4661 -108.8506 125° Southeast 496 571 35,000  Level Denver Center
03:25PM 39.3886 -108.7083 125° Southeast 514 592 35,000  Level Denver Center
03:26PM 39.2989 -108.5439 125° Southeast 506 582 35,000  Level Denver Center
03:27PM 39.2208 -108.4017 125° Southeast 509 586 35,000  Level Denver Center
03:28PM 39.1294 -108.2358 125° Southeast 511 588 35,000  Level Denver Center
03:29PM 39.0494 -108.0944 126° Southeast 511 588 35,000  Level Denver Center
03:30PM 38.9575 -107.9281 125° Southeast 511 588 35,000  Level Denver Center
03:31PM 38.8778 -107.7864 126° Southeast 513 590 35,000  Level Denver Center
03:32PM 38.7986 -107.6450 126° Southeast 511 588 35,000  Level Denver Center
03:33PM 38.7036 -107.4822 127° Southeast 512 589 35,000  Level Denver Center
03:34PM 38.6244 -107.3417 126° Southeast 511 588 35,000  Level Denver Center
03:35PM 38.5325 -107.1806 126° Southeast 511 588 35,000  Level Denver Center
03:36PM 38.4481 -107.0328 126° Southeast 514 592 35,000  Level Denver Center
03:37PM 38.3642 -106.8844 126° Southeast 517 595 35,000  Level Denver Center
03:38PM 38.2769 -106.7275 125° Southeast 519 597 35,000  Level Denver Center
03:39PM 38.1833 -106.5608 126° Southeast 520 598 35,000  Level Denver Center
03:40PM 38.1131 -106.4364 126° Southeast 516 594 35,000  Level Denver Center
03:41PM 38.0158 -106.2542 124° Southeast 508 585 35,000  Level Denver Center
03:42PM 37.9328 -106.1194 128° Southeast 504 580 35,000  Level Denver Center
03:43PM 37.8561 -105.9836 126° Southeast 497 572 35,000  Level Denver Center
03:44PM 37.7650 -105.8286 127° Southeast 491 565 35,000  Level Denver Center
03:45PM 37.6897 -105.6972 126° Southeast 485 558 35,000  Level Denver Center
03:46PM 37.6033 -105.5464 126° Southeast 479 551 35,000  Level Denver Center
03:47PM 37.5267 -105.4139 126° Southeast 470 541 35,000  Level Denver Center
03:48PM 37.4533 -105.2883 126° Southeast 466 536 35,000  Level Denver Center
03:49PM 37.3692 -105.1450 126° Southeast 471 542 35,000  Level Denver Center
03:50PM 37.2794 -104.9925 126° Southeast 482 555 35,000  Level Denver Center
03:51PM 37.2025 -104.8633 127° Southeast 486 559 35,000  Level Denver Center
03:52PM 37.1150 -104.7164 127° Southeast 476 548 35,000  Level Denver Center
03:53PM 37.0419 -104.5942 127° Southeast 465 535 35,000  Level Denver Center
03:55PM 36.9672 -104.4686 127° Southeast 469 540 35,000  Level Denver Center
03:55PM 36.9044 -104.3639 127° Southeast 470 541 35,000  Level Albuquerque Center
03:56PM 36.8136 -104.2142 127° Southeast 481 554 35,000  Level Albuquerque Center
03:57PM 36.7297 -104.0931 131° Southeast 483 556 35,000  Level Albuquerque Center
03:58PM 36.6364 -103.9831 137° Southeast 474 545 35,000  Level Albuquerque Center
03:59PM 36.5242 -103.8467 136° Southeast 476 548 35,000  Level Albuquerque Center
04:00PM 36.4283 -103.7303 136° Southeast 476 548 35,000  Level Albuquerque Center
04:01PM 36.3325 -103.6153 136° Southeast 475 547 35,000  Level Albuquerque Center
04:03PM 36.2369 -103.5022 136° Southeast 471 542 35,000  Level Albuquerque Center
04:04PM 36.1522 -103.3731 129° Southeast 474 545 35,000  Level Albuquerque Center
04:05PM 36.0722 -103.2344 126° Southeast 484 557 35,000  Level Albuquerque Center
04:06PM 35.9908 -103.0975 126° Southeast 488 562 35,000  Level Albuquerque Center
04:07PM 35.9089 -102.9600 126° Southeast 490 564 35,000  Level Albuquerque Center
04:08PM 35.8250 -102.8203 126° Southeast 495 570 35,000  Level Albuquerque Center
04:09PM 35.7281 -102.6581 126° Southeast 492 566 35,000  Level Albuquerque Center
04:10PM 35.6458 -102.5239 127° Southeast 492 566 35,000  Level Albuquerque Center
04:11PM 35.5658 -102.3925 127° Southeast 485 558 35,000  Level Albuquerque Center
04:12PM 35.4861 -102.2606 127° Southeast 483 556 35,000  Level Albuquerque Center
04:13PM 35.4067 -102.1306 127° Southeast 479 551 35,000  Level Albuquerque Center
04:14PM 35.3267 -102.0006 127° Southeast 480 552 35,000  Level Albuquerque Center
04:15PM 35.2406 -101.8608 127° Southeast 484 557 35,000  Level Albuquerque Center
04:16PM 35.1444 -101.7047 127° Southeast 487 560 35,000  Level Albuquerque Center
04:17PM 35.0686 -101.5794 126° Southeast 481 554 35,000  Level Albuquerque Center
04:18PM 34.9872 -101.4489 127° Southeast 481 554 35,000  Level Albuquerque Center
04:19PM 34.8953 -101.3033 128° Southeast 486 559 35,000  Level Albuquerque Center
04:20PM 34.8136 -101.1731 127° Southeast 485 558 35,000  Level Albuquerque Center
04:21PM 34.7325 -101.0436 127° Southeast 483 556 35,000  Level Albuquerque Center
04:22PM 34.6517 -100.9150 127° Southeast 481 554 35,000  Level Albuquerque Center
04:23PM 34.5719 -100.7889 127° Southeast 476 548 35,000  Level Albuquerque Center
04:24PM 34.4922 -100.6639 128° Southeast 471 542 35,000  Level Albuquerque Center
04:25PM 34.3975 -100.5147 128° Southeast 468 539 35,000  Level Albuquerque Center
04:26PM 34.3178 -100.3914 128° Southeast 466 536 35,000  Level Albuquerque Center
04:27PM 34.2428 -100.2800 129° Southeast 476 548 35,000  Level Fort Worth Center
04:28PM 34.1622 -100.1519 127° Southeast 469 540 35,000  Level Fort Worth Center
04:29PM 34.0856 -100.0292 127° Southeast 469 540 35,000  Level Fort Worth Center
04:30PM 34.0044 -99.9089 129° Southeast 469 540 35,000  Level Fort Worth Center
04:31PM 33.9336 -99.7992 128° Southeast 469 540 35,000  Level Fort Worth Center
04:32PM 33.8544 -99.6769 128° Southeast 463 533 35,000  Level Fort Worth Center
04:33PM 33.7753 -99.5550 128° Southeast 463 533 35,000  Level Fort Worth Center
04:34PM 33.6936 -99.4356 129° Southeast 463 533 35,000  Level Fort Worth Center
04:35PM 33.6142 -99.3117 128° Southeast 458 527 35,000  Level Fort Worth Center
04:36PM 33.5325 -99.1903 129° Southeast 458 527 35,000  Level Fort Worth Center
04:37PM 33.4528 -99.0717 129° Southeast 458 527 35,000  Level Fort Worth Center
04:38PM 33.3728 -98.9481 128° Southeast 458 527 35,000  Level Fort Worth Center
04:39PM 33.2908 -98.8250 129° Southeast 463 533 35,000  Level Fort Worth Center
04:40PM 33.2067 -98.7044 130° Southeast 468 539 35,000  Level Fort Worth Center
04:41PM 33.1242 -98.5817 129° Southeast 468 539 35,000  Level Fort Worth Center
04:42PM 33.0397 -98.4592 129° Southeast 478 550 35,000  Level Fort Worth Center
04:43PM 32.9636 -98.3444 128° Southeast 466 536 35,000  Level Fort Worth Center
04:44PM 32.8808 -98.2222 129° Southeast 466 536 35,000  Level Fort Worth Center
04:45PM 32.7958 -98.1031 130° Southeast 471 542 35,000  Level Fort Worth Center
04:46PM 32.7108 -97.9839 130° Southeast 477 549 35,000  Level Fort Worth Center
04:47PM 32.6217 -97.8697 133° Southeast 477 549 35,000  Level Fort Worth Center
04:48PM 32.5303 -97.7583 134° Southeast 472 543 35,000  Level Fort Worth Center
04:49PM 32.4428 -97.6472 133° Southeast 467 537 35,000  Level Fort Worth Center
04:50PM 32.3469 -97.5289 134° Southeast 461 531 35,000  Level Fort Worth Center
04:51PM 32.2572 -97.4208 134° Southeast 456 525 35,000  Level Fort Worth Center
04:52PM 32.1694 -97.3103 133° Southeast 456 525 35,000  Level Fort Worth Center
04:53PM 32.0775 -97.1975 134° Southeast 461 531 35,000 -240 Level Fort Worth Center
04:54PM 31.9875 -97.0875 134° Southeast 461 531 34,600 -660 Descending Fort Worth Center
04:55PM 31.9119 -96.9875 132° Southeast 456 525 33,700 -960 Descending Fort Worth Center
04:56PM 31.8239 -96.8828 135° Southeast 456 525 32,700 -1,020 Descending Fort Worth Center
04:57PM 31.7358 -96.7733 133° Southeast 456 525 31,700 -780 Descending Fort Worth Center
04:59PM 31.6158 -96.6286 134° Southeast 460 529 31,000 -300 Descending Houston Center
05:00PM 31.5203 -96.5225 137° Southeast 470 541 31,000  Level Houston Center
05:01PM 31.4042 -96.4703 159° South 452 520 31,000  Level Houston Center
05:02PM 31.2842 -96.4256 162° South 445 512 31,000 -660 Level Houston Center
05:03PM 31.1506 -96.3500 154° Southeast 458 527 29,700 -2,100 Descending Houston Center
05:04PM 31.0408 -96.2739 149° Southeast 456 525 26,700 -2,940 Descending Houston Center
05:05PM 30.9344 -96.1994 149° Southeast 447 514 23,700 -2,940 Descending Houston Center
05:06PM 30.8278 -96.1247 149° Southeast 443 510 20,700 -2,940 Descending Houston Center
05:07PM 30.7267 -96.0539 149° Southeast 429 494 17,700 -3,240 Descending Houston Center
05:07PM 30.7122 -96.0442 150° Southeast 408 470 17,200 -3,300 Descending Houston Center
05:08PM 30.6361 -95.9897 148° Southeast 391 450 14,800 -2,520 Descending Houston Center
05:08PM 30.6389 -95.9917 329° Northwest 407 468 14,800 -2,280 Level Houston Center
05:09PM 30.5447 -95.9275 150° Southeast 373 429 12,500 -2,340 Descending Houston Center
05:09PM 30.5322 -95.9161 142° Southeast 380 437 12,400 -540 Descending Houston Center
05:10PM 30.4575 -95.8650 149° Southeast 372 428 12,000 -420 Descending Houston Center
05:10PM 30.4444 -95.8536 143° Southeast 372 428 12,000  Level Houston Center
05:11PM 30.3817 -95.7889 138° Southeast 323 372 12,000  Level Houston Center
05:11PM 30.3733 -95.7797 136° Southeast 347 399 12,000 -1,080 Level Houston Center
05:12PM 30.3122 -95.7147 137° Southeast 296 341 10,800 -1,200 Descending Houston Center
05:12PM 30.3128 -95.7156 308° West 308 354 10,800 -1,560 Level Houston Center
05:13PM 30.2569 -95.6608 140° Southeast 288 331 9,400 -1,500 Descending Houston Center
05:13PM 30.2539 -95.6533 115° Southeast 292 336 9,300 -1,380 Descending Houston Center
05:14PM 30.2011 -95.5997 139° Southeast 271 312 8,000 -1,380 Descending Houston Center
05:14PM 30.1975 -95.5947 130° Southeast 279 321 7,900 -960 Descending Houston Center
05:15PM 30.1525 -95.5500 139° Southeast 261 300 7,100 -900 Descending Houston Center
05:15PM 30.1325 -95.5281 136° Southeast 265 305 7,000  Descending Houston Center
05:16PM 30.1061 -95.4758 120° Southeast 271 312 7,100  Climbing Houston Center
05:16PM 30.1061 -95.4503 90° East 277 319 7,000 -120 Descending Houston Center
05:17PM 30.1067 -95.3889 89° East 264 304 7,000  Level Houston Center
05:17PM 30.1069 -95.3669 89° East 262 302 7,000 60 Level Houston Center
05:18PM 30.1069 -95.3019 90° East 233 268 7,100  Climbing Houston Center
05:18PM 30.1058 -95.2917 97° East 237 273 7,000 -900 Descending Houston Center
05:19PM 30.1061 -95.2247 90° East 238 274 6,200 -900 Descending Houston Center
05:19PM 30.1064 -95.2150 88° East 237 273 6,100 -1,020 Descending Houston Center
05:20PM 30.1028 -95.1431 93° East 234 269 5,100 -1,080 Descending Houston Center
05:20PM 30.1022 -95.1403 103° East 233 268 5,000 -1,020 Descending Houston Center
05:21PM 30.0500 -95.1181 160° South 206 237 4,100 -900 Descending Houston Center
05:21PM 30.0514 -95.1183 350° North 213 245 4,100 -1,020 Level Houston Center
05:22PM 30.0103 -95.1422 207° Southwest 181 208 3,200 -1,260 Descending Houston Center
05:22PM 30.0064 -95.1586 255° West 194 223 2,800 -1,080 Descending Houston Center
05:23PM 29.9969 -95.2017 256° West 180 207 2,100 -780 Descending Houston Center
05:23PM 29.9950 -95.2153 261° West 187 215 2,000 -840 Descending Houston Center
05:24PM 29.9944 -95.2647 269° West 165 190 1,200 -900 Descending Houston Center
05:24PM 29.9936 -95.2725 263° West 184 212 1,100 -720 Descending Houston Center
05:25PM 29.9939 -95.3217 270° West 171 197 300 -780 Descending Houston Center